createdAt,value
2022-12-19T00:02:15.050Z,91.20
2022-12-19T00:07:18.734Z,91.30
2022-12-19T00:12:22.216Z,89.60
2022-12-19T00:17:25.673Z,89.60
2022-12-19T00:22:29.199Z,85.70
2022-12-19T00:27:32.671Z,89.30
2022-12-19T00:32:36.140Z,84.60
2022-12-19T00:37:46.489Z,85.50
2022-12-19T00:42:53.772Z,86.20
2022-12-19T00:47:57.473Z,82.20
2022-12-19T00:53:00.932Z,84.50
2022-12-19T00:58:04.379Z,91.40
2022-12-19T01:03:07.893Z,90.80
2022-12-19T01:08:11.440Z,95.40
2022-12-19T01:13:14.932Z,92.30
2022-12-19T01:18:24.312Z,89.90
2022-12-19T01:23:27.779Z,92.20
2022-12-19T01:28:31.272Z,89.50
2022-12-19T01:33:34.698Z,90.10
2022-12-19T01:38:38.164Z,89.50
2022-12-19T01:43:41.629Z,85.10
2022-12-19T01:48:47.124Z,89.70
2022-12-19T01:53:50.660Z,89.30
2022-12-19T01:59:05.066Z,92.60
2022-12-19T02:04:10.527Z,89.80
2022-12-19T02:09:17.354Z,93.90
2022-12-19T02:14:20.791Z,91.50
2022-12-19T02:19:24.280Z,88.10
2022-12-19T02:24:28.371Z,86.50
2022-12-19T02:29:33.894Z,92.40
2022-12-19T02:34:42.728Z,89.70
2022-12-19T02:39:48.347Z,85.40
2022-12-19T02:44:52.003Z,92.30
2022-12-19T02:49:55.502Z,86.80
2022-12-19T02:54:58.988Z,86.30
2022-12-19T03:00:03.165Z,87.60
2022-12-19T03:05:06.922Z,82.10
2022-12-19T03:10:10.412Z,84.60
2022-12-19T03:15:13.888Z,80.50
2022-12-19T03:20:17.371Z,81.20
2022-12-19T03:25:20.827Z,81.80
2022-12-19T03:30:24.339Z,85.60
2022-12-19T03:35:27.748Z,79.10
2022-12-19T03:40:31.222Z,79.40
2022-12-19T03:45:34.683Z,77.60
2022-12-19T03:50:38.415Z,77.20
2022-12-19T03:55:41.900Z,77.90
2022-12-19T04:00:47.382Z,79.40
2022-12-19T04:05:50.997Z,76.80
2022-12-19T04:10:54.463Z,75.10
2022-12-19T04:15:58.043Z,71.10
2022-12-19T04:21:01.627Z,64.40
2022-12-19T04:26:05.109Z,72.40
2022-12-19T04:31:08.668Z,74.70
2022-12-19T04:36:12.690Z,65.40
2022-12-19T04:41:16.201Z,68.80
2022-12-19T04:46:19.765Z,72.90
2022-12-19T04:51:23.311Z,69.10
2022-12-19T04:56:26.760Z,64.10
2022-12-19T05:01:30.257Z,64.00
2022-12-19T05:06:33.922Z,63.70
2022-12-19T05:11:37.412Z,69.10
2022-12-19T05:16:40.904Z,67.90
2022-12-19T05:21:44.448Z,69.30
2022-12-19T05:26:47.943Z,67.10
2022-12-19T05:31:51.915Z,70.80
2022-12-19T05:36:55.347Z,71.60
2022-12-19T05:41:58.805Z,70.20
2022-12-19T05:47:03.582Z,72.30
2022-12-19T05:52:07.067Z,71.30
2022-12-19T05:57:10.541Z,73.20
2022-12-19T06:02:14.175Z,75.30
2022-12-19T06:07:20.851Z,71.00
2022-12-19T06:12:24.941Z,74.80
2022-12-19T06:17:28.416Z,70.90
2022-12-19T06:22:31.959Z,74.40
2022-12-19T06:27:35.425Z,72.70
2022-12-19T06:32:39.004Z,71.70
2022-12-19T06:37:42.495Z,72.60
2022-12-19T06:42:45.979Z,72.40
2022-12-19T06:47:49.554Z,71.60
2022-12-19T06:52:53.034Z,77.50
2022-12-19T06:57:57.084Z,73.70
2022-12-19T07:03:01.340Z,76.70
2022-12-19T07:08:04.934Z,75.60
2022-12-19T07:13:08.439Z,71.20
2022-12-19T07:18:11.916Z,77.80
2022-12-19T07:23:15.394Z,79.70
2022-12-19T07:28:18.904Z,76.80
2022-12-19T07:33:22.378Z,77.90
2022-12-19T07:38:26.143Z,77.00
2022-12-19T07:43:29.738Z,73.90
2022-12-19T07:48:34.482Z,80.40
2022-12-19T07:53:37.946Z,81.80
2022-12-19T07:58:41.393Z,70.30
2022-12-19T08:03:44.975Z,72.10
2022-12-19T08:08:48.452Z,77.20
2022-12-19T08:13:51.905Z,78.30
2022-12-19T08:18:56.659Z,75.40
2022-12-19T08:24:00.137Z,78.00
2022-12-19T08:29:04.139Z,77.20
2022-12-19T08:34:07.775Z,78.00
2022-12-19T08:39:11.265Z,81.40
2022-12-19T08:44:15.396Z,80.60
2022-12-19T08:49:19.394Z,79.90
2022-12-19T08:54:22.887Z,81.80
2022-12-19T08:59:31.327Z,83.00
2022-12-19T09:05:58.840Z,80.50
2022-12-19T09:10:01.782Z,79.00
2022-12-19T09:15:05.400Z,83.30
2022-12-19T09:20:08.965Z,82.80
2022-12-19T09:25:12.495Z,84.80
2022-12-19T09:30:15.955Z,80.50
2022-12-19T09:35:19.452Z,78.80
2022-12-19T09:40:23.004Z,86.10
2022-12-19T09:45:32.369Z,84.00
2022-12-19T09:50:36.497Z,80.00
2022-12-19T09:55:39.943Z,79.40
2022-12-19T10:00:43.396Z,81.30
2022-12-19T10:07:07.809Z,81.30
2022-12-19T10:12:38.267Z,82.50
2022-12-19T10:16:34.006Z,81.80
2022-12-19T10:22:15.653Z,81.10
2022-12-19T10:27:01.099Z,78.20
2022-12-19T10:32:04.707Z,78.10
2022-12-19T10:37:29.085Z,77.10
2022-12-19T10:42:31.743Z,76.10
2022-12-19T10:47:35.428Z,78.60
2022-12-19T10:52:38.961Z,74.80
2022-12-19T10:57:42.471Z,74.40
2022-12-19T11:02:46.824Z,73.50
2022-12-19T11:07:50.448Z,67.40
2022-12-19T11:18:06.037Z,70.40
2022-12-19T11:27:03.809Z,69.90
2022-12-19T11:30:06.170Z,69.90
2022-12-19T11:30:39.632Z,67.30
2022-12-19T11:34:28.440Z,66.60
2022-12-19T11:39:31.938Z,70.70
2022-12-19T11:44:35.460Z,68.80
2022-12-19T11:49:38.960Z,64.20
2022-12-19T11:54:43.140Z,60.00
2022-12-19T11:59:46.635Z,64.00
2022-12-19T12:04:50.207Z,59.10
2022-12-19T12:14:00.324Z,60.40
2022-12-19T12:28:09.727Z,64.10
2022-12-19T12:31:16.107Z,58.20
2022-12-19T12:31:55.329Z,61.80
2022-12-19T12:42:14.530Z,57.00
2022-12-19T12:47:18.017Z,59.00
2022-12-19T12:52:21.526Z,56.20
2022-12-19T12:57:24.958Z,60.10
2022-12-19T13:02:30.572Z,62.90
2022-12-19T13:07:34.185Z,57.90
2022-12-19T13:12:57.215Z,54.10
2022-12-19T13:18:00.704Z,56.20
2022-12-19T13:23:04.321Z,61.50
2022-12-19T13:28:07.795Z,56.70
2022-12-19T13:33:11.383Z,64.10
2022-12-19T13:40:00.232Z,67.10
2022-12-19T13:43:48.404Z,63.00
2022-12-19T13:48:51.964Z,68.90
2022-12-19T13:53:59.506Z,65.70
2022-12-19T13:59:03.878Z,70.60
2022-12-19T14:04:07.845Z,61.60
2022-12-19T14:11:23.213Z,66.80
2022-12-19T14:15:12.239Z,64.10
2022-12-19T14:22:01.743Z,65.90
2022-12-19T14:28:17.528Z,61.20
2022-12-19T14:31:03.413Z,66.60
2022-12-19T14:36:14.682Z,60.90
2022-12-19T14:41:42.014Z,67.00
2022-12-19T14:53:08.410Z,68.40
2022-12-19T14:54:34.713Z,66.40
2022-12-19T14:58:50.492Z,63.40
2022-12-19T15:02:56.200Z,59.10
2022-12-19T15:07:59.869Z,65.00
2022-12-19T15:14:46.967Z,62.40
2022-12-19T15:18:46.499Z,59.90
2022-12-19T15:23:50.039Z,63.00
2022-12-19T15:28:53.810Z,66.00
2022-12-19T15:34:33.063Z,64.50
2022-12-19T15:39:25.767Z,63.70
2022-12-19T15:44:29.293Z,66.40
2022-12-19T15:49:35.281Z,62.60
2022-12-19T15:54:48.834Z,68.00
2022-12-19T15:59:53.511Z,71.70
2022-12-19T16:05:03.483Z,69.30
2022-12-19T16:10:07.805Z,74.30
2022-12-19T16:15:11.204Z,76.60
2022-12-19T16:20:14.691Z,71.40
2022-12-19T16:25:18.095Z,78.80
2022-12-19T16:30:21.967Z,71.60
2022-12-19T16:36:01.797Z,72.50
2022-12-19T16:40:48.772Z,81.40
2022-12-19T16:45:53.736Z,78.20
2022-12-19T16:50:59.210Z,72.10
2022-12-19T16:56:02.602Z,73.10
2022-12-19T17:01:06.139Z,74.30
2022-12-19T17:06:09.550Z,72.30
2022-12-19T17:11:12.933Z,75.60
2022-12-19T17:16:16.400Z,74.40
2022-12-19T17:21:19.940Z,82.00
2022-12-19T17:26:23.449Z,80.10
2022-12-19T17:31:26.940Z,79.50
2022-12-19T17:36:36.597Z,83.00
2022-12-19T17:41:40.819Z,78.50
2022-12-19T17:46:44.305Z,81.30
2022-12-19T17:51:47.847Z,87.10
2022-12-19T17:56:51.235Z,90.70
2022-12-19T18:01:54.831Z,90.70
2022-12-19T18:06:58.432Z,91.50
2022-12-19T18:12:01.818Z,95.80
2022-12-19T18:17:05.371Z,99.60
2022-12-19T18:22:08.936Z,94.50
2022-12-19T18:27:12.459Z,106.50
2022-12-19T18:32:15.831Z,103.20
2022-12-19T18:37:19.251Z,104.30
2022-12-19T18:42:22.683Z,102.10
2022-12-19T18:47:26.626Z,104.00
2022-12-19T18:52:30.199Z,96.70
2022-12-19T18:57:33.669Z,106.30
2022-12-19T19:02:37.225Z,103.60
2022-12-19T19:07:40.875Z,105.10
2022-12-19T19:12:44.243Z,104.20
2022-12-19T19:17:47.862Z,108.50
2022-12-19T19:22:51.242Z,104.80
2022-12-19T19:27:56.205Z,114.50
2022-12-19T19:32:59.721Z,114.20
2022-12-19T19:38:03.100Z,122.40
2022-12-19T19:43:06.990Z,123.80
2022-12-19T19:48:10.345Z,115.70
2022-12-19T19:53:13.715Z,114.20
2022-12-19T19:58:17.173Z,121.30
2022-12-19T20:03:23.195Z,111.10
2022-12-19T20:08:27.867Z,111.10
2022-12-19T20:13:32.387Z,109.80
2022-12-19T20:18:35.783Z,104.50
2022-12-19T20:23:39.209Z,104.00
2022-12-19T20:28:48.516Z,102.10
2022-12-19T20:33:53.690Z,100.70
2022-12-19T20:38:57.123Z,95.50
2022-12-19T20:44:00.537Z,92.40
2022-12-19T20:49:03.914Z,90.00
2022-12-19T20:54:08.545Z,92.50
2022-12-19T20:59:11.940Z,91.80
2022-12-19T21:04:15.554Z,90.70
2022-12-19T21:09:19.351Z,85.90
2022-12-19T21:14:22.795Z,77.50
2022-12-19T21:19:26.187Z,78.30
2022-12-19T21:24:29.748Z,103.00
2022-12-19T21:29:33.176Z,97.30
2022-12-19T21:34:36.557Z,117.40
2022-12-19T21:39:40.084Z,92.70
2022-12-19T21:44:43.689Z,87.00
2022-12-19T21:49:47.098Z,79.40
2022-12-19T21:54:50.715Z,79.40
2022-12-19T21:59:54.153Z,75.40
2022-12-19T22:04:57.664Z,73.40
2022-12-19T22:10:01.206Z,71.40
2022-12-19T22:15:04.609Z,74.20
2022-12-19T22:20:09.034Z,67.90
2022-12-19T22:25:12.815Z,64.90
2022-12-19T22:30:16.704Z,57.60
2022-12-19T22:35:20.141Z,60.70
2022-12-19T22:40:23.558Z,56.50
2022-12-19T22:45:27.029Z,55.10
2022-12-19T22:50:30.623Z,53.80
2022-12-19T22:55:34.014Z,51.70
2022-12-19T23:00:37.604Z,51.00
2022-12-19T23:05:41.030Z,49.10
2022-12-19T23:10:44.528Z,44.00
2022-12-19T23:15:47.920Z,44.50
2022-12-19T23:20:52.582Z,45.60
2022-12-19T23:25:55.956Z,42.60
2022-12-19T23:30:59.365Z,36.70
2022-12-19T23:36:02.733Z,37.90
2022-12-19T23:41:06.156Z,38.10
2022-12-19T23:46:10.765Z,38.50
2022-12-19T23:51:14.246Z,34.30
2022-12-19T23:56:17.809Z,32.50
